createdAt,value
2023-05-06T00:01:10.887Z,9.07
2023-05-06T00:03:37.804Z,11.37
2023-05-06T00:06:07.033Z,10.00
2023-05-06T00:08:33.841Z,14.53
2023-05-06T00:11:00.519Z,16.07
2023-05-06T00:13:27.190Z,11.50
2023-05-06T00:15:54.110Z,14.00
2023-05-06T00:18:22.535Z,10.80
2023-05-06T00:20:49.648Z,11.43
2023-05-06T00:23:16.461Z,9.93
2023-05-06T00:25:43.149Z,13.30
2023-05-06T00:28:09.921Z,9.20
2023-05-06T00:30:36.556Z,19.03
2023-05-06T00:33:03.402Z,14.70
2023-05-06T00:35:30.746Z,10.63
2023-05-06T00:38:12.168Z,16.57
2023-05-06T00:40:39.088Z,12.93
2023-05-06T00:43:05.979Z,14.07
2023-05-06T00:45:33.330Z,14.80
2023-05-06T00:48:00.796Z,12.37
2023-05-06T00:50:28.588Z,17.40
2023-05-06T00:52:58.273Z,16.17
2023-05-06T00:55:25.480Z,15.57
2023-05-06T00:57:52.684Z,15.10
2023-05-06T01:00:20.559Z,15.37
2023-05-06T01:02:48.547Z,13.17
2023-05-06T01:05:18.143Z,15.47
2023-05-06T01:07:59.899Z,13.60
2023-05-06T01:10:45.188Z,16.77
2023-05-06T01:13:21.549Z,11.60
2023-05-06T01:16:02.139Z,10.20
2023-05-06T01:18:32.420Z,18.70
2023-05-06T01:21:00.156Z,14.23
2023-05-06T01:23:28.842Z,13.90
2023-05-06T01:25:55.487Z,16.50
2023-05-06T01:28:22.145Z,15.23
2023-05-06T01:30:54.882Z,11.00
2023-05-06T01:33:58.566Z,13.00
2023-05-06T01:36:32.782Z,16.53
2023-05-06T01:39:12.208Z,13.90
2023-05-06T01:41:41.751Z,19.57
2023-05-06T01:44:10.830Z,11.43
2023-05-06T01:46:37.624Z,12.33
2023-05-06T01:49:08.169Z,11.50
2023-05-06T01:51:34.989Z,10.50
2023-05-06T01:54:02.576Z,15.93
2023-05-06T01:56:32.747Z,18.53
2023-05-06T01:58:59.857Z,13.33
2023-05-06T02:01:27.013Z,12.20
2023-05-06T02:03:53.833Z,15.33
2023-05-06T02:06:20.688Z,12.53
2023-05-06T02:08:47.814Z,12.30
2023-05-06T02:11:14.621Z,14.57
2023-05-06T02:13:41.511Z,12.00
2023-05-06T02:16:08.978Z,13.37
2023-05-06T02:18:36.053Z,9.60
2023-05-06T02:21:03.225Z,11.90
2023-05-06T02:23:30.241Z,13.73
2023-05-06T02:25:58.130Z,11.77
2023-05-06T02:28:25.362Z,17.30
2023-05-06T02:30:56.484Z,12.37
2023-05-06T02:33:23.800Z,18.70
2023-05-06T02:35:51.286Z,11.80
2023-05-06T02:38:18.684Z,11.57
2023-05-06T02:40:45.422Z,12.57
2023-05-06T02:43:12.327Z,12.73
2023-05-06T02:45:39.318Z,16.37
2023-05-06T02:48:06.537Z,13.67
2023-05-06T02:50:34.906Z,11.10
2023-05-06T02:53:01.608Z,11.77
2023-05-06T02:55:28.353Z,19.67
2023-05-06T02:57:55.089Z,11.43
2023-05-06T03:00:21.892Z,15.13
2023-05-06T03:02:48.653Z,11.00
2023-05-06T03:05:15.511Z,17.43
2023-05-06T03:07:42.266Z,14.10
2023-05-06T03:10:09.468Z,12.90
2023-05-06T03:12:36.412Z,12.10
2023-05-06T03:15:03.264Z,19.63
2023-05-06T03:17:29.996Z,12.67
2023-05-06T03:19:56.654Z,14.60
2023-05-06T03:22:23.324Z,13.47
2023-05-06T03:24:50.095Z,18.27
2023-05-06T03:27:16.724Z,14.13
2023-05-06T03:29:43.486Z,21.33
2023-05-06T03:32:10.169Z,12.67
2023-05-06T03:34:38.379Z,11.20
2023-05-06T03:37:05.053Z,13.00
2023-05-06T03:39:31.677Z,15.10
2023-05-06T03:41:58.370Z,17.97
2023-05-06T03:44:25.020Z,10.63
2023-05-06T03:46:51.645Z,15.23
2023-05-06T03:49:18.524Z,12.93
2023-05-06T03:51:45.245Z,14.77
2023-05-06T03:54:11.974Z,19.83
2023-05-06T03:56:38.705Z,22.93
2023-05-06T03:59:05.452Z,10.47
2023-05-06T04:01:32.138Z,17.03
2023-05-06T04:03:58.837Z,16.27
2023-05-06T04:06:26.172Z,14.20
2023-05-06T04:08:52.883Z,16.67
2023-05-06T04:11:19.611Z,14.57
2023-05-06T04:13:46.226Z,14.43
2023-05-06T04:16:13.824Z,15.73
2023-05-06T04:18:40.526Z,16.10
2023-05-06T04:21:07.206Z,12.67
2023-05-06T04:23:34.103Z,12.60
2023-05-06T04:26:00.781Z,15.40
2023-05-06T04:28:27.457Z,16.27
2023-05-06T04:30:54.197Z,18.30
2023-05-06T04:33:22.287Z,10.47
2023-05-06T04:35:59.261Z,11.70
2023-05-06T04:38:30.308Z,13.70
2023-05-06T04:40:57.452Z,10.60
2023-05-06T04:43:24.961Z,19.80
2023-05-06T04:45:52.761Z,13.30
2023-05-06T04:48:22.361Z,12.07
2023-05-06T04:50:50.136Z,18.03
2023-05-06T04:53:17.360Z,12.70
2023-05-06T04:55:44.168Z,14.30
2023-05-06T04:58:10.811Z,11.27
2023-05-06T05:00:37.526Z,11.23
2023-05-06T05:03:04.649Z,10.93
2023-05-06T05:05:33.196Z,17.33
2023-05-06T05:07:59.966Z,11.77
2023-05-06T05:10:26.793Z,17.23
2023-05-06T05:12:53.555Z,12.77
2023-05-06T05:15:21.282Z,15.57
2023-05-06T05:17:48.305Z,9.03
2023-05-06T05:20:15.023Z,12.77
2023-05-06T05:22:41.732Z,17.83
2023-05-06T05:25:08.773Z,15.77
2023-05-06T05:27:35.553Z,18.97
2023-05-06T05:30:02.264Z,13.93
2023-05-06T05:32:29.145Z,12.83
2023-05-06T05:34:56.438Z,12.30
2023-05-06T05:37:23.224Z,12.30
2023-05-06T05:39:49.999Z,12.03
2023-05-06T05:42:17.002Z,13.07
2023-05-06T05:44:43.832Z,13.60
2023-05-06T05:47:10.675Z,11.40
2023-05-06T05:49:37.355Z,14.87
2023-05-06T05:52:04.311Z,12.63
2023-05-06T05:54:31.021Z,11.93
2023-05-06T05:56:58.170Z,13.70
2023-05-06T05:59:25.328Z,14.43
2023-05-06T06:01:52.147Z,36.97
2023-05-06T06:04:21.333Z,17.43
2023-05-06T06:06:48.102Z,10.50
2023-05-06T06:09:14.888Z,11.50
2023-05-06T06:11:41.694Z,11.43
2023-05-06T06:14:08.372Z,10.87
2023-05-06T06:16:36.558Z,13.33
2023-05-06T06:19:03.329Z,17.77
2023-05-06T06:21:31.252Z,13.50
2023-05-06T06:23:58.034Z,13.80
2023-05-06T06:26:24.815Z,11.10
2023-05-06T06:28:51.452Z,12.03
2023-05-06T06:31:18.702Z,14.50
2023-05-06T06:33:45.385Z,10.07
2023-05-06T06:36:12.064Z,13.63
2023-05-06T06:38:38.800Z,18.50
2023-05-06T06:41:05.472Z,15.40
2023-05-06T06:43:34.942Z,12.07
2023-05-06T06:46:01.720Z,11.53
2023-05-06T06:48:28.457Z,13.80
2023-05-06T06:50:55.516Z,14.63
2023-05-06T06:53:22.192Z,17.23
2023-05-06T06:55:48.884Z,15.27
2023-05-06T06:58:15.529Z,16.47
2023-05-06T07:00:42.226Z,10.60
2023-05-06T07:03:08.990Z,16.80
2023-05-06T07:05:35.697Z,12.17
2023-05-06T07:08:02.374Z,14.20
2023-05-06T07:10:29.218Z,12.27
2023-05-06T07:12:55.955Z,15.87
2023-05-06T07:15:22.762Z,17.07
2023-05-06T07:17:49.497Z,13.93
2023-05-06T07:20:16.360Z,13.50
2023-05-06T07:22:43.757Z,14.37
2023-05-06T07:25:10.792Z,13.77
2023-05-06T07:27:38.001Z,16.17
2023-05-06T07:30:05.496Z,13.50
2023-05-06T07:32:32.299Z,15.93
2023-05-06T07:34:59.027Z,19.23
2023-05-06T07:37:25.750Z,15.47
2023-05-06T07:39:52.499Z,13.57
2023-05-06T07:42:19.221Z,14.30
2023-05-06T07:44:45.861Z,12.60
2023-05-06T07:47:14.718Z,14.90
2023-05-06T07:49:41.408Z,11.20
2023-05-06T07:52:08.087Z,19.07
2023-05-06T07:54:34.743Z,12.50
2023-05-06T07:57:02.381Z,14.67
2023-05-06T07:59:29.085Z,13.63
2023-05-06T08:01:55.721Z,13.17
2023-05-06T08:04:22.684Z,20.50
2023-05-06T08:06:49.410Z,16.10
2023-05-06T08:09:22.716Z,17.17
2023-05-06T08:11:50.671Z,18.17
2023-05-06T08:14:17.443Z,21.97
2023-05-06T08:16:44.394Z,14.03
2023-05-06T08:19:11.460Z,14.03
2023-05-06T08:21:38.147Z,14.90
2023-05-06T08:24:04.965Z,16.67
2023-05-06T08:26:31.597Z,15.13
2023-05-06T08:28:59.496Z,19.37
2023-05-06T08:31:26.189Z,12.70
2023-05-06T08:33:54.602Z,15.97
2023-05-06T08:36:22.254Z,16.17
2023-05-06T08:38:50.876Z,18.60
2023-05-06T08:41:19.977Z,17.20
2023-05-06T08:43:48.434Z,12.13
2023-05-06T08:46:15.561Z,15.47
2023-05-06T08:48:42.759Z,14.27
2023-05-06T08:51:10.755Z,14.60
2023-05-06T08:53:39.763Z,14.97
2023-05-06T08:56:08.881Z,15.87
2023-05-06T08:58:38.556Z,13.87
2023-05-06T09:01:06.141Z,16.73
2023-05-06T09:03:32.920Z,12.50
2023-05-06T09:05:59.887Z,14.43
2023-05-06T09:08:26.578Z,11.83
2023-05-06T09:10:53.269Z,21.67
2023-05-06T09:13:20.159Z,15.30
2023-05-06T09:15:49.014Z,16.97
2023-05-06T09:18:16.632Z,17.17
2023-05-06T09:20:46.161Z,13.40
2023-05-06T09:23:14.990Z,13.33
2023-05-06T09:25:43.271Z,14.70
2023-05-06T09:28:11.647Z,11.40
2023-05-06T09:30:43.599Z,9.50
2023-05-06T09:33:11.473Z,11.07
2023-05-06T09:35:40.358Z,10.73
2023-05-06T09:38:07.832Z,12.73
2023-05-06T09:40:39.058Z,15.40
2023-05-06T09:43:05.991Z,15.90
2023-05-06T09:45:33.276Z,10.23
2023-05-06T09:48:01.142Z,11.63
2023-05-06T09:50:28.221Z,12.10
2023-05-06T09:52:56.156Z,12.50
2023-05-06T09:55:26.637Z,14.27
2023-05-06T09:57:58.158Z,12.40
2023-05-06T10:00:28.374Z,13.63
2023-05-06T10:02:56.041Z,12.00
2023-05-06T10:05:25.087Z,12.20
2023-05-06T10:07:54.921Z,12.40
2023-05-06T10:10:24.177Z,13.73
2023-05-06T10:12:52.680Z,12.43
2023-05-06T10:15:19.517Z,13.27
2023-05-06T10:17:48.947Z,11.97
2023-05-06T10:20:16.883Z,15.00
2023-05-06T10:22:59.499Z,10.57
2023-05-06T10:25:36.482Z,14.93
2023-05-06T10:28:09.641Z,12.53
2023-05-06T10:30:53.680Z,14.47
2023-05-06T10:33:23.427Z,15.63
2023-05-06T10:36:00.285Z,12.60
2023-05-06T10:38:32.605Z,11.60
2023-05-06T10:41:00.556Z,15.13
2023-05-06T10:43:34.370Z,16.27
2023-05-06T10:46:13.013Z,25.37
2023-05-06T10:49:04.778Z,20.97
2023-05-06T10:51:34.663Z,15.53
2023-05-06T10:54:21.602Z,14.77
2023-05-06T10:56:48.256Z,11.23
2023-05-06T10:59:18.160Z,14.53
2023-05-06T11:01:45.161Z,13.13
2023-05-06T11:04:14.010Z,17.97
2023-05-06T11:06:42.761Z,10.43
2023-05-06T11:09:23.781Z,12.70
2023-05-06T11:12:03.806Z,12.33
2023-05-06T11:14:37.763Z,9.17
2023-05-06T11:17:06.735Z,9.10
2023-05-06T11:19:40.294Z,10.63
2023-05-06T11:22:07.456Z,11.57
2023-05-06T11:24:42.560Z,12.23
2023-05-06T11:27:13.617Z,15.27
2023-05-06T11:29:43.194Z,13.80
2023-05-06T11:32:25.257Z,7.50
2023-05-06T11:34:55.918Z,7.50
2023-05-06T11:37:31.575Z,14.63
2023-05-06T11:39:58.334Z,9.10
2023-05-06T11:42:27.749Z,9.77
2023-05-06T11:44:55.596Z,8.43
2023-05-06T11:47:23.545Z,9.07
2023-05-06T11:49:53.518Z,7.77
2023-05-06T11:52:23.448Z,9.50
2023-05-06T11:54:54.027Z,6.07
2023-05-06T11:57:21.045Z,7.30
2023-05-06T11:59:54.272Z,6.43
2023-05-06T12:02:21.508Z,6.03
2023-05-06T12:04:50.126Z,9.10
2023-05-06T12:07:17.011Z,8.30
2023-05-06T12:09:47.150Z,6.10
2023-05-06T12:12:19.972Z,7.60
2023-05-06T12:14:47.557Z,8.73
2023-05-06T12:17:14.844Z,5.77
2023-05-06T12:19:44.307Z,6.47
2023-05-06T12:22:15.608Z,6.17
2023-05-06T12:24:42.326Z,7.30
2023-05-06T12:27:09.118Z,7.77
2023-05-06T12:29:36.022Z,6.93
2023-05-06T12:32:14.407Z,5.27
2023-05-06T12:34:41.601Z,7.93
2023-05-06T12:37:09.006Z,6.00
2023-05-06T12:39:40.499Z,7.30
2023-05-06T12:42:07.234Z,5.73
2023-05-06T12:44:36.429Z,7.23
2023-05-06T12:47:24.252Z,8.00
2023-05-06T12:49:59.140Z,5.77
2023-05-06T12:52:28.796Z,8.77
2023-05-06T12:54:56.351Z,9.20
2023-05-06T12:57:25.481Z,11.37
2023-05-06T12:59:52.493Z,9.30
2023-05-06T13:02:19.375Z,11.70
2023-05-06T13:04:47.168Z,9.93
2023-05-06T13:07:13.995Z,9.70
2023-05-06T13:09:40.846Z,13.80
2023-05-06T13:12:09.851Z,8.20
2023-05-06T13:14:39.287Z,10.20
2023-05-06T13:17:07.322Z,9.13
2023-05-06T13:19:34.212Z,10.33
2023-05-06T13:22:01.610Z,9.50
2023-05-06T13:24:29.191Z,12.83
2023-05-06T13:26:57.119Z,9.57
2023-05-06T13:29:24.514Z,11.20
2023-05-06T13:31:51.657Z,10.30
2023-05-06T13:34:18.765Z,11.37
2023-05-06T13:36:46.836Z,12.80
2023-05-06T13:39:13.568Z,12.40
2023-05-06T13:41:40.322Z,14.57
2023-05-06T13:44:07.006Z,14.13
2023-05-06T13:46:34.046Z,13.20
2023-05-06T13:49:00.808Z,14.33
2023-05-06T13:51:30.572Z,12.97
2023-05-06T13:53:57.578Z,12.87
2023-05-06T13:56:24.443Z,16.10
2023-05-06T13:58:53.153Z,13.27
2023-05-06T14:01:21.412Z,14.90
2023-05-06T14:03:48.522Z,19.00
2023-05-06T14:06:15.258Z,14.17
2023-05-06T14:08:42.304Z,11.17
2023-05-06T14:11:11.819Z,14.47
2023-05-06T14:13:40.357Z,14.47
2023-05-06T14:16:07.392Z,17.57
2023-05-06T14:18:34.169Z,14.50
2023-05-06T14:21:00.985Z,15.33
2023-05-06T14:23:27.788Z,12.40
2023-05-06T14:25:54.521Z,12.83
2023-05-06T14:28:21.228Z,19.00
2023-05-06T14:30:48.047Z,13.70
2023-05-06T14:33:15.052Z,16.43
2023-05-06T14:35:42.956Z,23.90
2023-05-06T14:38:10.841Z,13.63
2023-05-06T14:40:38.861Z,11.30
2023-05-06T14:43:07.534Z,17.57
2023-05-06T14:45:34.758Z,14.60
2023-05-06T14:48:01.631Z,16.47
2023-05-06T14:50:29.896Z,13.13
2023-05-06T14:52:56.590Z,13.87
2023-05-06T14:55:23.468Z,11.87
2023-05-06T14:57:50.239Z,14.13
2023-05-06T15:00:17.377Z,12.93
2023-05-06T15:02:44.280Z,17.03
2023-05-06T15:05:12.312Z,14.27
2023-05-06T15:07:39.350Z,12.17
2023-05-06T15:10:06.880Z,17.27
2023-05-06T15:12:34.222Z,13.77
2023-05-06T15:15:00.967Z,24.00
2023-05-06T15:17:27.853Z,19.47
2023-05-06T15:19:54.677Z,15.07
2023-05-06T15:22:21.507Z,17.80
2023-05-06T15:24:48.315Z,15.93
2023-05-06T15:27:15.262Z,16.53
2023-05-06T15:29:44.436Z,11.83
2023-05-06T15:32:11.294Z,15.33
2023-05-06T15:34:38.033Z,12.87
2023-05-06T15:37:04.833Z,13.30
2023-05-06T15:39:37.386Z,13.03
2023-05-06T15:42:04.447Z,10.17
2023-05-06T15:44:32.550Z,13.20
2023-05-06T15:46:59.275Z,14.13
2023-05-06T15:49:49.457Z,15.40
2023-05-06T15:52:12.788Z,12.20
2023-05-06T15:54:39.982Z,11.37
2023-05-06T15:57:07.958Z,23.17
2023-05-06T15:59:34.804Z,14.63
2023-05-06T16:02:26.075Z,12.27
2023-05-06T16:04:48.486Z,15.67
2023-05-06T16:07:15.691Z,17.57
2023-05-06T16:09:42.964Z,15.10
2023-05-06T16:12:10.140Z,18.57
2023-05-06T16:14:37.056Z,16.27
2023-05-06T16:17:04.019Z,13.27
2023-05-06T16:19:32.124Z,11.50
2023-05-06T16:21:58.916Z,14.67
2023-05-06T16:24:25.683Z,20.37
2023-05-06T16:26:52.901Z,15.40
2023-05-06T16:29:20.793Z,13.90
2023-05-06T16:31:48.923Z,19.53
2023-05-06T16:34:15.915Z,12.27
2023-05-06T16:36:43.641Z,11.97
2023-05-06T16:39:10.469Z,13.43
2023-05-06T16:41:37.221Z,14.70
2023-05-06T16:44:04.321Z,15.10
2023-05-06T16:46:31.121Z,21.10
2023-05-06T16:48:57.906Z,14.80
2023-05-06T16:51:24.779Z,14.83
2023-05-06T16:53:51.548Z,11.37
2023-05-06T16:56:21.230Z,13.97
2023-05-06T16:58:48.004Z,11.93
2023-05-06T17:01:17.894Z,13.07
2023-05-06T17:03:46.271Z,12.40
2023-05-06T17:06:13.421Z,13.97
2023-05-06T17:08:40.164Z,15.87
2023-05-06T17:11:07.297Z,18.90
2023-05-06T17:13:34.608Z,11.03
2023-05-06T17:16:01.384Z,12.47
2023-05-06T17:18:28.144Z,15.13
2023-05-06T17:20:56.871Z,10.40
2023-05-06T17:23:24.747Z,13.23
2023-05-06T17:25:51.763Z,12.83
2023-05-06T17:28:19.023Z,12.03
2023-05-06T17:30:46.510Z,12.77
2023-05-06T17:33:13.286Z,13.57
2023-05-06T17:35:40.007Z,17.73
2023-05-06T17:38:06.922Z,16.60
2023-05-06T17:40:33.854Z,11.73
2023-05-06T17:43:00.866Z,14.73
2023-05-06T17:45:28.567Z,15.10
2023-05-06T17:47:56.495Z,14.93
2023-05-06T17:50:23.656Z,12.53
2023-05-06T17:52:52.347Z,18.50
2023-05-06T17:55:21.505Z,13.27
2023-05-06T17:57:48.779Z,17.83
2023-05-06T18:00:16.745Z,15.60
2023-05-06T18:02:44.548Z,14.13
2023-05-06T18:05:11.897Z,16.37
2023-05-06T18:07:39.292Z,14.60
2023-05-06T18:10:07.146Z,15.30
2023-05-06T18:12:34.068Z,15.87
2023-05-06T18:15:08.729Z,14.87
2023-05-06T18:17:40.069Z,11.97
2023-05-06T18:20:08.019Z,16.57
2023-05-06T18:22:35.106Z,18.77
2023-05-06T18:25:04.331Z,14.50
2023-05-06T18:27:32.343Z,14.17
2023-05-06T18:30:01.419Z,16.67
2023-05-06T18:32:28.237Z,12.70
2023-05-06T18:34:54.964Z,13.90
2023-05-06T18:37:21.665Z,13.63
2023-05-06T18:39:48.448Z,16.70
2023-05-06T18:42:15.501Z,13.83
2023-05-06T18:44:42.929Z,13.53
2023-05-06T18:47:09.716Z,14.93
2023-05-06T18:49:36.522Z,12.73
2023-05-06T18:52:03.469Z,17.10
2023-05-06T18:54:30.709Z,14.47
2023-05-06T18:57:01.097Z,14.07
2023-05-06T18:59:27.882Z,16.67
2023-05-06T19:01:54.657Z,13.10
2023-05-06T19:04:21.438Z,13.10
2023-05-06T19:06:48.239Z,11.57
2023-05-06T19:09:15.000Z,13.10
2023-05-06T19:11:41.754Z,12.67
2023-05-06T19:14:08.749Z,11.77
2023-05-06T19:16:35.702Z,12.80
2023-05-06T19:19:03.439Z,12.60
2023-05-06T19:21:31.393Z,12.20
2023-05-06T19:23:59.891Z,11.30
2023-05-06T19:26:29.723Z,15.40
2023-05-06T19:28:56.452Z,10.53
2023-05-06T19:31:25.545Z,14.00
2023-05-06T19:33:54.928Z,13.97
2023-05-06T19:36:21.644Z,15.17
2023-05-06T19:38:48.373Z,14.57
2023-05-06T19:41:15.202Z,12.53
2023-05-06T19:43:43.644Z,14.87
2023-05-06T19:46:11.668Z,13.80
2023-05-06T19:48:39.088Z,12.97
2023-05-06T19:51:06.722Z,14.83
2023-05-06T19:53:34.168Z,12.57
2023-05-06T19:56:14.145Z,11.43
2023-05-06T19:58:41.063Z,13.43
2023-05-06T20:01:07.929Z,17.03
2023-05-06T20:03:35.568Z,15.93
2023-05-06T20:06:03.926Z,14.93
2023-05-06T20:08:31.045Z,11.33
2023-05-06T20:10:58.382Z,15.03
2023-05-06T20:13:25.364Z,12.57
2023-05-06T20:15:54.113Z,11.97
2023-05-06T20:18:23.410Z,13.67
2023-05-06T20:20:50.154Z,12.83
2023-05-06T20:23:16.859Z,15.33
2023-05-06T20:25:43.618Z,19.97
2023-05-06T20:28:10.434Z,16.33
2023-05-06T20:30:38.398Z,12.27
2023-05-06T20:33:05.420Z,14.07
2023-05-06T20:35:37.961Z,13.97
2023-05-06T20:38:04.814Z,15.40
2023-05-06T20:40:33.285Z,18.83
2023-05-06T20:43:00.403Z,13.83
2023-05-06T20:45:27.666Z,19.70
2023-05-06T20:47:54.520Z,17.27
2023-05-06T20:50:21.332Z,15.53
2023-05-06T20:52:48.269Z,18.53
2023-05-06T20:55:15.843Z,17.37
2023-05-06T20:57:44.173Z,21.87
2023-05-06T21:00:11.601Z,15.83
2023-05-06T21:02:41.327Z,13.70
2023-05-06T21:05:09.840Z,14.03
2023-05-06T21:07:36.854Z,15.53
2023-05-06T21:10:05.690Z,20.93
2023-05-06T21:12:33.552Z,28.97
2023-05-06T21:15:01.104Z,18.60
2023-05-06T21:17:28.524Z,22.33
2023-05-06T21:19:55.493Z,18.40
2023-05-06T21:22:23.781Z,21.40
2023-05-06T21:24:51.256Z,16.90
2023-05-06T21:27:18.255Z,20.30
2023-05-06T21:29:45.024Z,17.83
2023-05-06T21:32:11.730Z,20.47
2023-05-06T21:34:38.406Z,18.27
2023-05-06T21:37:05.122Z,20.67
2023-05-06T21:39:31.854Z,24.43
2023-05-06T21:41:58.648Z,21.00
2023-05-06T21:44:25.399Z,16.40
2023-05-06T21:46:52.323Z,19.70
2023-05-06T21:49:21.298Z,19.67
2023-05-06T21:51:48.196Z,17.07
2023-05-06T21:54:16.113Z,22.50
2023-05-06T21:56:42.864Z,19.43
2023-05-06T21:59:09.589Z,16.07
2023-05-06T22:01:36.736Z,22.97
2023-05-06T22:04:09.365Z,19.33
2023-05-06T22:06:36.184Z,22.97
2023-05-06T22:09:04.497Z,21.57
2023-05-06T22:11:31.213Z,20.67
2023-05-06T22:13:58.042Z,20.67
2023-05-06T22:16:24.793Z,28.53
2023-05-06T22:18:51.830Z,20.30
2023-05-06T22:21:18.664Z,28.00
2023-05-06T22:23:45.502Z,23.03
2023-05-06T22:26:12.282Z,20.77
2023-05-06T22:28:38.998Z,25.17
2023-05-06T22:31:05.944Z,28.23
2023-05-06T22:33:32.820Z,28.53
2023-05-06T22:35:59.932Z,24.87
2023-05-06T22:38:26.652Z,23.73
2023-05-06T22:40:53.364Z,26.63
2023-05-06T22:43:20.486Z,23.73
2023-05-06T22:45:48.959Z,28.60
2023-05-06T22:48:16.634Z,28.27
2023-05-06T22:50:43.338Z,29.60
2023-05-06T22:53:14.936Z,25.63
2023-05-06T22:55:42.399Z,29.20
2023-05-06T22:58:11.395Z,23.27
2023-05-06T23:00:38.207Z,30.20
2023-05-06T23:03:05.972Z,29.43
2023-05-06T23:05:32.791Z,25.97
2023-05-06T23:07:59.694Z,30.20
2023-05-06T23:10:26.838Z,29.73
2023-05-06T23:12:53.594Z,36.53
2023-05-06T23:15:20.664Z,29.57
2023-05-06T23:17:47.407Z,33.47
2023-05-06T23:20:14.172Z,30.30
2023-05-06T23:22:40.930Z,30.73
2023-05-06T23:25:11.832Z,25.83
2023-05-06T23:27:39.893Z,27.90
2023-05-06T23:30:08.241Z,31.50
2023-05-06T23:32:35.171Z,30.50
2023-05-06T23:35:02.278Z,25.97
2023-05-06T23:37:29.039Z,31.00
2023-05-06T23:39:56.940Z,32.50
2023-05-06T23:42:25.666Z,30.80
2023-05-06T23:44:55.714Z,30.40
2023-05-06T23:47:25.605Z,29.40
2023-05-06T23:49:52.479Z,33.63
2023-05-06T23:52:19.175Z,27.17
2023-05-06T23:54:45.938Z,29.50
2023-05-06T23:57:12.908Z,25.10
2023-05-06T23:59:39.709Z,27.23
